METAR Data

Data at: 2214 UTC 14 Dec 2018

METAR for:KSDL (Scottsdale Muni, AZ, US)
Text:KSDL 142153Z 21003KT 10SM CLR 18/M10 A3020 RMK AO2 SLP217 T01781100
Temperature: 17.8°C ( 64°F)
Dewpoint:-10.0°C ( 14°F) [RH = 14%]
Pressure (altimeter):30.20 inches Hg (1022.8 mb) [Sea level pressure: 1021.7 mb]
Winds:from the SSW (210 degrees) at 3 MPH (3 knots; 1.5 m/s)
Visibility:10 or more sm (16+ km)
Ceiling:at least 12,000 feet AGL
Clouds:sky clear below 12,000 feet AGL